NCAR-RAP Real-Time Weather Data

Output produced by METARs form (14 October 2019  23:15 UTC)
found at http://weather.rap.ucar.edu/surface/
 
KBUF 142254Z 26006KT 10SM FEW035 BKN065 08/00 A3004 RMK AO2 SLP178 T00830000 $
KBUF 142154Z 25007KT 10SM FEW035 BKN065 09/01 A3003 RMK AO2 SLP174 T00890006 $
KBUF 142054Z 27010KT 10SM FEW035 FEW045 BKN065 09/00 A3001 RMK AO2 SLP167 T00940000 53008 $
KBUF 141954Z 26010KT 10SM FEW035 SCT047 BKN060 09/00 A3000 RMK AO2 SLP164 T00890000 $
KBUF 141854Z 24008KT 10SM FEW035 BKN047 OVC075 09/M01 A2999 RMK AO2 SLP159 T00891006 $
KBUF 141754Z 26008KT 10SM FEW035 BKN050 OVC070 09/00 A2999 RMK AO2 SLP158 T00890000 10089 20072 50004 $
KBUF 141654Z 26007KT 10SM FEW035 BKN045 OVC065 08/00 A2999 RMK AO2 SLP160 T00830000 $
KBUF 141554Z 27008KT 10SM FEW035 BKN045 OVC060 08/00 A2999 RMK AO2 SLP156 T00830000 $
KBUF 141454Z 27007KT 10SM FEW038 SCT047 OVC055 08/00 A2998 RMK AO2 SLP154 T00780000 51019 $
KBUF 141354Z 29008KT 10SM BKN033 BKN050 OVC070 07/01 A2996 RMK AO2 SLP149 T00720006 $
KBUF 141254Z 31007KT 10SM FEW034 SCT049 BKN070 08/02 A2994 RMK AO2 SLP142 T00780022 $
KBUF 141154Z 29012KT 10SM SCT034 BKN080 08/03 A2992 RMK AO2 SLP134 60001 70001 T00780028 10094 20078 53016 $
KBUF 141054Z 26006KT 10SM OVC055 08/04 A2990 RMK AO2 RAB09E37 SLP126 P0001 T00780039 $
KBUF 140954Z 27004KT 10SM SCT049 BKN055 OVC090 09/02 A2988 RMK AO2 SLP120 T00890022 $
KBUF 140854Z 27005KT 10SM FEW038 BKN110 09/06 A2987 RMK AO2 SLP117 T00890061 53004 $
KBUF 140754Z 27003KT 10SM BKN110 09/06 A2986 RMK AO2 SLP112 T00890061 $
KBUF 140654Z 09003KT 10SM FEW035 BKN120 09/06 A2986 RMK AO2 SLP111 T00890061 $
KBUF 140554Z 36004KT 10SM FEW035 BKN110 09/06 A2986 RMK AO2 SLP113 T00940061 10144 20094 53010 $
KBUF 140454Z 34009KT 10SM SCT110 BKN160 11/06 A2986 RMK AO2 SLP112 T01060061 401890028 $
KBUF 140354Z 21014KT 10SM BKN110 14/M01 A2983 RMK AO2 SLP102 T01391006 $
KBUF 140254Z 19011KT 10SM FEW150 13/M01 A2983 RMK AO2 SLP103 T01281011 50001 $
KBUF 140154Z 20013KT 10SM FEW250 14/M02 A2984 RMK AO2 SLP105 T01391017 $
KBUF 140054Z 19011KT 10SM FEW250 13/M01 A2984 RMK AO2 SLP106 T01281006 $
KBUF 132354Z 19010KT 10SM FEW250 14/M01 A2983 RMK AO2 SLP105 T01391006 10189 20139 50001 $
KBUF 132254Z 20013KT 10SM FEW070 FEW200 FEW250 15/M01 A2983 RMK AO2 SLP106 T01501011 $
KBUF 132154Z 19010KT 10SM FEW200 FEW250 17/M01 A2983 RMK AO2 SLP103 T01671006 $
KBUF 132054Z 19013G19KT 10SM FEW150 FEW200 FEW250 18/M02 A2983 RMK AO2 SLP102 T01831017 56026 $
KBUF 131954Z 20012KT 10SM SCT150 SCT190 SCT230 18/M01 A2985 RMK AO2 SLP109 T01831011 $
KBUF 131854Z 20011G19KT 10SM SCT150 BKN200 BKN250 17/M01 A2987 RMK AO2 SLP116 T01721006 $
KBUF 131754Z 18014G24KT 10SM FEW160 FEW200 FEW250 17/M02 A2991 RMK AO2 SLP128 T01721017 10172 20039 58032 $
KBUF 131654Z 20012KT 10SM FEW200 SCT250 16/00 A2995 RMK AO2 SLP143 T01560000 $
KBUF 131554Z 20013KT 10SM FEW200 13/01 A2998 RMK AO2 SLP155 T01330006 $
KBUF 131454Z 19012KT 10SM FEW220 11/01 A3000 RMK AO2 SLP162 T01110011 58009 $
KBUF 131354Z 19014KT 10SM FEW200 09/01 A3001 RMK AO2 SLP166 T00940006 $
KBUF 131254Z 19007KT 10SM FEW200 07/01 A3003 RMK AO2 SLP172 T00670011 $
KBUF 131154Z 16008KT 10SM FEW220 04/00 A3003 RMK AO2 SLP174 70004 T00390000 10056 20028 50003 $
KBUF 131054Z 17007KT 10SM CLR 03/00 A3003 RMK AO2 SLP175 T00280000 $
KBUF 130954Z 17007KT 10SM CLR 03/00 A3003 RMK AO2 SLP175 T00330000 $
KBUF 130854Z 17007KT 10SM CLR 04/00 A3002 RMK AO2 SLP169 T00390000 58005 $
KBUF 130754Z 17007KT 10SM CLR 04/00 A3003 RMK AO2 SLP172 T00440000 $
KBUF 130654Z 19008KT 10SM FEW050 05/01 A3003 RMK AO2 SLP174 T00500006 $
KBUF 130554Z 19010KT 10SM FEW050 06/01 A3003 RMK AO2 SLP174 T00560006 10100 20056 54000 $
KBUF 130454Z 20010KT 10SM CLR 06/02 A3003 RMK AO2 SLP174 T00560017 401500056 $
KBUF 130354Z 19009KT 10SM CLR 07/02 A3003 RMK AO2 SLP175 T00670022 $
KBUF 130254Z 20009KT 10SM BKN040 08/03 A3003 RMK AO2 SLP173 T00830028 50003 $
KBUF 130154Z 20010KT 10SM BKN041 10/03 A3004 RMK AO2 SLP174 T01000028 $
KBUF 130054Z 23012KT 10SM BKN039 09/02 A3002 RMK AO2 SLP169 T00940022 $
KBUF 122354Z 25013G20KT 10SM SCT037 09/02 A3003 RMK AO2 SLP169 T00890022 10122 20089 53013 $